sensor_id;sensor_type;location;lat;lon;timestamp;P1;durP1;ratioP1;P2;durP2;ratioP2
417;SDS011;49;48.530;9.200;2023-11-21T00:02:19;10.43;;;3.70;;
417;SDS011;49;48.530;9.200;2023-11-21T00:04:47;8.80;;;3.77;;
417;SDS011;49;48.530;9.200;2023-11-21T00:07:14;11.23;;;4.27;;
417;SDS011;49;48.530;9.200;2023-11-21T00:09:43;8.00;;;3.20;;
417;SDS011;49;48.530;9.200;2023-11-21T00:12:10;13.93;;;4.17;;
417;SDS011;49;48.530;9.200;2023-11-21T00:14:39;10.50;;;4.47;;
417;SDS011;49;48.530;9.200;2023-11-21T00:17:06;7.03;;;3.10;;
417;SDS011;49;48.530;9.200;2023-11-21T00:19:33;10.70;;;3.87;;
417;SDS011;49;48.530;9.200;2023-11-21T00:22:00;10.13;;;3.77;;
417;SDS011;49;48.530;9.200;2023-11-21T00:24:26;10.63;;;3.77;;
417;SDS011;49;48.530;9.200;2023-11-21T00:26:55;14.83;;;4.87;;
417;SDS011;49;48.530;9.200;2023-11-21T00:29:21;12.33;;;3.67;;
417;SDS011;49;48.530;9.200;2023-11-21T00:31:48;7.07;;;3.60;;
417;SDS011;49;48.530;9.200;2023-11-21T00:34:15;8.47;;;3.20;;
417;SDS011;49;48.530;9.200;2023-11-21T00:36:42;7.13;;;3.10;;
417;SDS011;49;48.530;9.200;2023-11-21T00:39:09;6.97;;;2.60;;
417;SDS011;49;48.530;9.200;2023-11-21T00:41:37;8.40;;;3.87;;
417;SDS011;49;48.530;9.200;2023-11-21T00:44:05;7.53;;;3.40;;
417;SDS011;49;48.530;9.200;2023-11-21T00:46:32;10.83;;;3.27;;
417;SDS011;49;48.530;9.200;2023-11-21T00:49:00;8.40;;;3.50;;
417;SDS011;49;48.530;9.200;2023-11-21T00:51:29;9.57;;;3.20;;
417;SDS011;49;48.530;9.200;2023-11-21T00:53:56;9.80;;;3.23;;
417;SDS011;49;48.530;9.200;2023-11-21T00:56:23;8.30;;;2.80;;
417;SDS011;49;48.530;9.200;2023-11-21T00:58:50;9.60;;;3.53;;
417;SDS011;49;48.530;9.200;2023-11-21T01:01:19;9.80;;;3.50;;
417;SDS011;49;48.530;9.200;2023-11-21T01:03:47;9.83;;;3.20;;
417;SDS011;49;48.530;9.200;2023-11-21T01:06:14;11.63;;;3.57;;
417;SDS011;49;48.530;9.200;2023-11-21T01:08:41;9.80;;;3.00;;
417;SDS011;49;48.530;9.200;2023-11-21T01:11:09;11.43;;;3.40;;
417;SDS011;49;48.530;9.200;2023-11-21T01:13:37;5.70;;;2.63;;
417;SDS011;49;48.530;9.200;2023-11-21T01:16:05;10.43;;;3.43;;
417;SDS011;49;48.530;9.200;2023-11-21T01:18:34;9.30;;;3.30;;
417;SDS011;49;48.530;9.200;2023-11-21T01:21:01;6.57;;;2.93;;
417;SDS011;49;48.530;9.200;2023-11-21T01:23:29;6.97;;;3.00;;
417;SDS011;49;48.530;9.200;2023-11-21T01:25:56;4.50;;;2.80;;
417;SDS011;49;48.530;9.200;2023-11-21T01:28:23;7.50;;;3.03;;
417;SDS011;49;48.530;9.200;2023-11-21T01:30:51;8.60;;;2.67;;
417;SDS011;49;48.530;9.200;2023-11-21T01:33:21;11.20;;;3.27;;
417;SDS011;49;48.530;9.200;2023-11-21T01:35:51;5.10;;;2.70;;
417;SDS011;49;48.530;9.200;2023-11-21T01:38:19;9.43;;;2.90;;
417;SDS011;49;48.530;9.200;2023-11-21T01:40:47;12.07;;;3.53;;
417;SDS011;49;48.530;9.200;2023-11-21T01:43:14;9.07;;;2.80;;
417;SDS011;49;48.530;9.200;2023-11-21T01:45:41;8.30;;;2.70;;
417;SDS011;49;48.530;9.200;2023-11-21T01:48:10;7.47;;;2.60;;
417;SDS011;49;48.530;9.200;2023-11-21T01:50:37;4.27;;;2.43;;
417;SDS011;49;48.530;9.200;2023-11-21T01:53:06;6.00;;;3.30;;
417;SDS011;49;48.530;9.200;2023-11-21T01:55:34;10.83;;;2.87;;
417;SDS011;49;48.530;9.200;2023-11-21T01:58:01;5.60;;;3.10;;
417;SDS011;49;48.530;9.200;2023-11-21T02:00:28;7.27;;;2.90;;
417;SDS011;49;48.530;9.200;2023-11-21T02:02:56;9.63;;;2.63;;
417;SDS011;49;48.530;9.200;2023-11-21T02:05:24;6.40;;;3.13;;
417;SDS011;49;48.530;9.200;2023-11-21T02:07:51;9.10;;;3.10;;
417;SDS011;49;48.530;9.200;2023-11-21T02:10:21;4.77;;;2.27;;
417;SDS011;49;48.530;9.200;2023-11-21T02:12:49;4.90;;;2.50;;
417;SDS011;49;48.530;9.200;2023-11-21T02:15:21;7.10;;;2.83;;
417;SDS011;49;48.530;9.200;2023-11-21T02:17:53;3.50;;;2.30;;
417;SDS011;49;48.530;9.200;2023-11-21T02:20:23;3.53;;;2.57;;
417;SDS011;49;48.530;9.200;2023-11-21T02:22:53;4.10;;;2.40;;
417;SDS011;49;48.530;9.200;2023-11-21T02:25:23;5.80;;;2.50;;
417;SDS011;49;48.530;9.200;2023-11-21T02:27:55;3.80;;;2.43;;
417;SDS011;49;48.530;9.200;2023-11-21T02:30:22;6.83;;;2.70;;
417;SDS011;49;48.530;9.200;2023-11-21T02:32:51;4.00;;;2.30;;
417;SDS011;49;48.530;9.200;2023-11-21T02:35:18;7.80;;;2.30;;
417;SDS011;49;48.530;9.200;2023-11-21T02:37:46;4.30;;;2.60;;
417;SDS011;49;48.530;9.200;2023-11-21T02:40:14;3.40;;;2.30;;
417;SDS011;49;48.530;9.200;2023-11-21T02:42:43;4.03;;;2.20;;
417;SDS011;49;48.530;9.200;2023-11-21T02:45:10;3.63;;;2.10;;
417;SDS011;49;48.530;9.200;2023-11-21T02:47:38;3.07;;;1.97;;
417;SDS011;49;48.530;9.200;2023-11-21T02:50:05;7.30;;;2.20;;
417;SDS011;49;48.530;9.200;2023-11-21T02:52:34;5.00;;;2.80;;
417;SDS011;49;48.530;9.200;2023-11-21T02:55:01;4.83;;;2.63;;
417;SDS011;49;48.530;9.200;2023-11-21T02:57:29;5.70;;;2.73;;
417;SDS011;49;48.530;9.200;2023-11-21T02:59:56;8.83;;;2.47;;
417;SDS011;49;48.530;9.200;2023-11-21T03:02:24;10.40;;;2.53;;
417;SDS011;49;48.530;9.200;2023-11-21T03:04:51;4.07;;;2.63;;
417;SDS011;49;48.530;9.200;2023-11-21T03:07:18;3.30;;;2.33;;
417;SDS011;49;48.530;9.200;2023-11-21T03:09:45;6.93;;;2.60;;
417;SDS011;49;48.530;9.200;2023-11-21T03:12:12;2.83;;;2.03;;
417;SDS011;49;48.530;9.200;2023-11-21T03:14:40;3.43;;;2.20;;
417;SDS011;49;48.530;9.200;2023-11-21T03:17:07;2.97;;;2.30;;
417;SDS011;49;48.530;9.200;2023-11-21T03:19:34;8.40;;;2.30;;
417;SDS011;49;48.530;9.200;2023-11-21T03:22:01;2.33;;;2.00;;
417;SDS011;49;48.530;9.200;2023-11-21T03:24:29;5.83;;;2.27;;
417;SDS011;49;48.530;9.200;2023-11-21T03:26:56;4.20;;;2.70;;
417;SDS011;49;48.530;9.200;2023-11-21T03:29:23;3.77;;;2.30;;
417;SDS011;49;48.530;9.200;2023-11-21T03:31:51;6.93;;;2.47;;
417;SDS011;49;48.530;9.200;2023-11-21T03:34:22;4.40;;;2.17;;
417;SDS011;49;48.530;9.200;2023-11-21T03:36:50;4.73;;;2.07;;
417;SDS011;49;48.530;9.200;2023-11-21T03:39:18;6.43;;;2.37;;
417;SDS011;49;48.530;9.200;2023-11-21T03:41:46;2.50;;;2.17;;
417;SDS011;49;48.530;9.200;2023-11-21T03:44:12;2.20;;;1.97;;
417;SDS011;49;48.530;9.200;2023-11-21T03:46:39;4.30;;;2.33;;
417;SDS011;49;48.530;9.200;2023-11-21T03:49:08;3.93;;;2.40;;
417;SDS011;49;48.530;9.200;2023-11-21T03:51:35;22.63;;;2.30;;
417;SDS011;49;48.530;9.200;2023-11-21T03:54:03;2.60;;;2.23;;
417;SDS011;49;48.530;9.200;2023-11-21T03:56:30;4.00;;;2.30;;
417;SDS011;49;48.530;9.200;2023-11-21T03:58:57;2.60;;;2.20;;
417;SDS011;49;48.530;9.200;2023-11-21T04:01:24;3.27;;;2.70;;
417;SDS011;49;48.530;9.200;2023-11-21T04:03:51;4.00;;;2.00;;
417;SDS011;49;48.530;9.200;2023-11-21T04:06:19;2.40;;;2.10;;
417;SDS011;49;48.530;9.200;2023-11-21T04:08:46;2.87;;;2.50;;
417;SDS011;49;48.530;9.200;2023-11-21T04:11:13;3.87;;;2.70;;
417;SDS011;49;48.530;9.200;2023-11-21T04:13:40;3.60;;;2.73;;
417;SDS011;49;48.530;9.200;2023-11-21T04:16:08;3.60;;;2.33;;
417;SDS011;49;48.530;9.200;2023-11-21T04:18:35;3.37;;;2.30;;
417;SDS011;49;48.530;9.200;2023-11-21T04:21:03;4.03;;;2.50;;
417;SDS011;49;48.530;9.200;2023-11-21T04:23:32;2.50;;;2.10;;
417;SDS011;49;48.530;9.200;2023-11-21T04:25:59;2.93;;;2.33;;
417;SDS011;49;48.530;9.200;2023-11-21T04:28:28;2.67;;;2.20;;
417;SDS011;49;48.530;9.200;2023-11-21T04:30:55;4.77;;;2.30;;
417;SDS011;49;48.530;9.200;2023-11-21T04:33:22;2.57;;;2.10;;
417;SDS011;49;48.530;9.200;2023-11-21T04:35:50;3.70;;;2.23;;
417;SDS011;49;48.530;9.200;2023-11-21T04:38:17;2.30;;;2.10;;
417;SDS011;49;48.530;9.200;2023-11-21T04:40:46;2.80;;;2.27;;
417;SDS011;49;48.530;9.200;2023-11-21T04:43:12;4.33;;;2.13;;
417;SDS011;49;48.530;9.200;2023-11-21T04:45:39;2.50;;;2.17;;
417;SDS011;49;48.530;9.200;2023-11-21T04:48:06;3.17;;;2.37;;
417;SDS011;49;48.530;9.200;2023-11-21T04:50:35;3.90;;;2.10;;
417;SDS011;49;48.530;9.200;2023-11-21T04:53:01;2.77;;;2.00;;
417;SDS011;49;48.530;9.200;2023-11-21T04:55:28;2.33;;;2.10;;
417;SDS011;49;48.530;9.200;2023-11-21T04:57:57;2.33;;;2.00;;
417;SDS011;49;48.530;9.200;2023-11-21T05:00:23;3.23;;;2.10;;
417;SDS011;49;48.530;9.200;2023-11-21T05:02:50;2.80;;;1.90;;
417;SDS011;49;48.530;9.200;2023-11-21T05:05:18;2.70;;;2.00;;
417;SDS011;49;48.530;9.200;2023-11-21T05:07:45;2.77;;;2.23;;
417;SDS011;49;48.530;9.200;2023-11-21T05:10:11;2.87;;;2.33;;
417;SDS011;49;48.530;9.200;2023-11-21T05:12:40;4.53;;;2.47;;
417;SDS011;49;48.530;9.200;2023-11-21T05:15:09;6.73;;;4.23;;
417;SDS011;49;48.530;9.200;2023-11-21T05:17:40;5.77;;;3.77;;
417;SDS011;49;48.530;9.200;2023-11-21T05:20:09;7.90;;;4.90;;
417;SDS011;49;48.530;9.200;2023-11-21T05:22:37;7.43;;;4.10;;
417;SDS011;49;48.530;9.200;2023-11-21T05:25:05;8.97;;;5.43;;
417;SDS011;49;48.530;9.200;2023-11-21T05:27:33;7.00;;;4.83;;
417;SDS011;49;48.530;9.200;2023-11-21T05:30:00;4.83;;;3.57;;
417;SDS011;49;48.530;9.200;2023-11-21T05:32:29;4.43;;;2.70;;
417;SDS011;49;48.530;9.200;2023-11-21T05:34:56;4.67;;;3.20;;
417;SDS011;49;48.530;9.200;2023-11-21T05:37:23;3.60;;;2.50;;
417;SDS011;49;48.530;9.200;2023-11-21T05:39:52;3.43;;;2.60;;
417;SDS011;49;48.530;9.200;2023-11-21T05:42:21;4.30;;;2.57;;
417;SDS011;49;48.530;9.200;2023-11-21T05:44:48;5.07;;;3.07;;
417;SDS011;49;48.530;9.200;2023-11-21T05:47:15;4.57;;;2.40;;
417;SDS011;49;48.530;9.200;2023-11-21T05:49:44;10.27;;;2.93;;
417;SDS011;49;48.530;9.200;2023-11-21T05:52:15;5.30;;;3.17;;
417;SDS011;49;48.530;9.200;2023-11-21T05:54:42;5.77;;;3.47;;
417;SDS011;49;48.530;9.200;2023-11-21T05:57:09;3.83;;;2.90;;
417;SDS011;49;48.530;9.200;2023-11-21T05:59:36;5.57;;;2.43;;
417;SDS011;49;48.530;9.200;2023-11-21T06:02:03;4.23;;;2.57;;
417;SDS011;49;48.530;9.200;2023-11-21T06:04:31;4.03;;;2.57;;
417;SDS011;49;48.530;9.200;2023-11-21T06:06:59;7.00;;;2.90;;
417;SDS011;49;48.530;9.200;2023-11-21T06:09:26;5.30;;;2.90;;
417;SDS011;49;48.530;9.200;2023-11-21T06:11:53;7.40;;;2.67;;
417;SDS011;49;48.530;9.200;2023-11-21T06:14:20;3.90;;;2.73;;
417;SDS011;49;48.530;9.200;2023-11-21T06:16:47;4.20;;;2.80;;
417;SDS011;49;48.530;9.200;2023-11-21T06:19:16;4.97;;;2.47;;
417;SDS011;49;48.530;9.200;2023-11-21T06:21:45;3.03;;;2.27;;
417;SDS011;49;48.530;9.200;2023-11-21T06:24:13;2.77;;;2.40;;
417;SDS011;49;48.530;9.200;2023-11-21T06:26:41;3.23;;;2.43;;
417;SDS011;49;48.530;9.200;2023-11-21T06:29:09;2.77;;;2.53;;
417;SDS011;49;48.530;9.200;2023-11-21T06:31:36;5.83;;;2.50;;
417;SDS011;49;48.530;9.200;2023-11-21T06:34:03;4.10;;;2.60;;
417;SDS011;49;48.530;9.200;2023-11-21T06:36:30;7.40;;;2.60;;
417;SDS011;49;48.530;9.200;2023-11-21T06:38:57;4.30;;;2.87;;
417;SDS011;49;48.530;9.200;2023-11-21T06:41:25;3.60;;;2.30;;
417;SDS011;49;48.530;9.200;2023-11-21T06:43:52;3.53;;;2.43;;
417;SDS011;49;48.530;9.200;2023-11-21T06:46:19;3.50;;;2.60;;
417;SDS011;49;48.530;9.200;2023-11-21T06:48:46;4.20;;;2.83;;
417;SDS011;49;48.530;9.200;2023-11-21T06:51:14;4.10;;;2.50;;
417;SDS011;49;48.530;9.200;2023-11-21T06:53:41;5.93;;;2.80;;
417;SDS011;49;48.530;9.200;2023-11-21T06:56:15;8.07;;;2.97;;
417;SDS011;49;48.530;9.200;2023-11-21T06:58:44;5.63;;;2.60;;
417;SDS011;49;48.530;9.200;2023-11-21T07:01:11;4.77;;;3.10;;
417;SDS011;49;48.530;9.200;2023-11-21T07:03:40;4.03;;;2.80;;
417;SDS011;49;48.530;9.200;2023-11-21T07:06:07;4.93;;;2.90;;
417;SDS011;49;48.530;9.200;2023-11-21T07:08:35;6.17;;;2.90;;
417;SDS011;49;48.530;9.200;2023-11-21T07:11:02;4.13;;;3.00;;
417;SDS011;49;48.530;9.200;2023-11-21T07:13:29;4.07;;;2.80;;
417;SDS011;49;48.530;9.200;2023-11-21T07:15:58;4.43;;;2.90;;
417;SDS011;49;48.530;9.200;2023-11-21T07:18:26;9.50;;;3.73;;
417;SDS011;49;48.530;9.200;2023-11-21T07:20:53;9.57;;;3.90;;
417;SDS011;49;48.530;9.200;2023-11-21T07:23:20;6.17;;;4.37;;
417;SDS011;49;48.530;9.200;2023-11-21T07:25:48;7.77;;;3.67;;
417;SDS011;49;48.530;9.200;2023-11-21T07:28:15;9.47;;;3.87;;
417;SDS011;49;48.530;9.200;2023-11-21T07:30:42;7.20;;;3.23;;
417;SDS011;49;48.530;9.200;2023-11-21T07:33:10;8.87;;;3.47;;
417;SDS011;49;48.530;9.200;2023-11-21T07:35:37;4.43;;;2.70;;
417;SDS011;49;48.530;9.200;2023-11-21T07:38:04;4.27;;;2.83;;
417;SDS011;49;48.530;9.200;2023-11-21T07:40:31;8.70;;;2.90;;
417;SDS011;49;48.530;9.200;2023-11-21T07:42:58;4.20;;;2.83;;
417;SDS011;49;48.530;9.200;2023-11-21T07:45:25;5.03;;;3.10;;
417;SDS011;49;48.530;9.200;2023-11-21T07:47:53;4.83;;;2.90;;
417;SDS011;49;48.530;9.200;2023-11-21T07:50:22;7.43;;;2.93;;
417;SDS011;49;48.530;9.200;2023-11-21T07:52:49;5.90;;;3.63;;
417;SDS011;49;48.530;9.200;2023-11-21T07:55:16;8.03;;;4.70;;
417;SDS011;49;48.530;9.200;2023-11-21T07:57:43;5.63;;;3.53;;
417;SDS011;49;48.530;9.200;2023-11-21T08:00:10;6.77;;;3.07;;
417;SDS011;49;48.530;9.200;2023-11-21T08:02:40;9.00;;;3.50;;
417;SDS011;49;48.530;9.200;2023-11-21T08:05:10;6.33;;;3.60;;
417;SDS011;49;48.530;9.200;2023-11-21T08:07:39;4.30;;;2.90;;
417;SDS011;49;48.530;9.200;2023-11-21T08:10:07;12.37;;;2.80;;
417;SDS011;49;48.530;9.200;2023-11-21T08:12:36;5.80;;;3.00;;
417;SDS011;49;48.530;9.200;2023-11-21T08:15:04;5.47;;;3.50;;
417;SDS011;49;48.530;9.200;2023-11-21T08:17:32;5.43;;;3.30;;
417;SDS011;49;48.530;9.200;2023-11-21T08:20:00;4.67;;;3.10;;
417;SDS011;49;48.530;9.200;2023-11-21T08:22:28;9.00;;;2.90;;
417;SDS011;49;48.530;9.200;2023-11-21T08:24:57;5.10;;;3.37;;
417;SDS011;49;48.530;9.200;2023-11-21T08:27:24;6.77;;;3.43;;
417;SDS011;49;48.530;9.200;2023-11-21T08:29:51;4.77;;;3.00;;
417;SDS011;49;48.530;9.200;2023-11-21T08:32:18;7.30;;;3.17;;
417;SDS011;49;48.530;9.200;2023-11-21T08:34:45;7.80;;;3.07;;
417;SDS011;49;48.530;9.200;2023-11-21T08:37:15;7.33;;;2.70;;
417;SDS011;49;48.530;9.200;2023-11-21T08:39:43;5.33;;;3.03;;
417;SDS011;49;48.530;9.200;2023-11-21T08:42:11;8.33;;;2.90;;
417;SDS011;49;48.530;9.200;2023-11-21T08:44:38;10.37;;;2.90;;
417;SDS011;49;48.530;9.200;2023-11-21T08:47:05;5.30;;;3.00;;
417;SDS011;49;48.530;9.200;2023-11-21T08:49:32;5.20;;;3.33;;
417;SDS011;49;48.530;9.200;2023-11-21T08:51:59;3.80;;;2.40;;
417;SDS011;49;48.530;9.200;2023-11-21T08:54:26;3.97;;;2.97;;
417;SDS011;49;48.530;9.200;2023-11-21T08:56:53;4.70;;;2.90;;
417;SDS011;49;48.530;9.200;2023-11-21T08:59:24;3.80;;;2.90;;
417;SDS011;49;48.530;9.200;2023-11-21T09:01:51;4.13;;;3.00;;
417;SDS011;49;48.530;9.200;2023-11-21T09:04:18;4.10;;;2.77;;
417;SDS011;49;48.530;9.200;2023-11-21T09:06:45;6.93;;;2.70;;
417;SDS011;49;48.530;9.200;2023-11-21T09:09:12;8.00;;;2.80;;
417;SDS011;49;48.530;9.200;2023-11-21T09:11:39;4.70;;;3.10;;
417;SDS011;49;48.530;9.200;2023-11-21T09:14:06;4.60;;;3.10;;
417;SDS011;49;48.530;9.200;2023-11-21T09:16:35;6.70;;;3.97;;
417;SDS011;49;48.530;9.200;2023-11-21T09:19:02;11.13;;;4.57;;
417;SDS011;49;48.530;9.200;2023-11-21T09:21:30;6.70;;;3.20;;
417;SDS011;49;48.530;9.200;2023-11-21T09:23:58;5.20;;;2.73;;
417;SDS011;49;48.530;9.200;2023-11-21T09:26:25;4.57;;;3.17;;
417;SDS011;49;48.530;9.200;2023-11-21T09:28:52;5.37;;;3.30;;
417;SDS011;49;48.530;9.200;2023-11-21T09:31:20;7.20;;;3.40;;
417;SDS011;49;48.530;9.200;2023-11-21T09:33:49;8.47;;;3.40;;
417;SDS011;49;48.530;9.200;2023-11-21T09:36:16;4.60;;;3.00;;
417;SDS011;49;48.530;9.200;2023-11-21T09:38:43;5.10;;;3.23;;
417;SDS011;49;48.530;9.200;2023-11-21T09:41:11;8.37;;;6.30;;
417;SDS011;49;48.530;9.200;2023-11-21T09:43:47;7.87;;;3.73;;
417;SDS011;49;48.530;9.200;2023-11-21T09:46:21;5.63;;;2.77;;
417;SDS011;49;48.530;9.200;2023-11-21T09:48:52;4.43;;;2.67;;
417;SDS011;49;48.530;9.200;2023-11-21T09:51:21;5.47;;;3.27;;
417;SDS011;49;48.530;9.200;2023-11-21T09:53:52;5.40;;;2.60;;
417;SDS011;49;48.530;9.200;2023-11-21T09:56:21;7.53;;;2.90;;
417;SDS011;49;48.530;9.200;2023-11-21T09:58:52;3.77;;;2.83;;
417;SDS011;49;48.530;9.200;2023-11-21T10:01:21;3.63;;;2.37;;
417;SDS011;49;48.530;9.200;2023-11-21T10:03:52;6.33;;;2.60;;
417;SDS011;49;48.530;9.200;2023-11-21T10:06:20;3.33;;;2.53;;
417;SDS011;49;48.530;9.200;2023-11-21T10:08:50;3.87;;;2.50;;
417;SDS011;49;48.530;9.200;2023-11-21T10:11:18;4.97;;;2.43;;
417;SDS011;49;48.530;9.200;2023-11-21T10:13:49;2.33;;;1.90;;
417;SDS011;49;48.530;9.200;2023-11-21T10:16:23;4.40;;;2.20;;
417;SDS011;49;48.530;9.200;2023-11-21T10:18:54;2.93;;;2.10;;
417;SDS011;49;48.530;9.200;2023-11-21T10:21:22;2.67;;;2.10;;
417;SDS011;49;48.530;9.200;2023-11-21T10:23:49;5.07;;;2.20;;
417;SDS011;49;48.530;9.200;2023-11-21T10:26:19;6.63;;;3.37;;
417;SDS011;49;48.530;9.200;2023-11-21T10:28:55;4.50;;;2.30;;
417;SDS011;49;48.530;9.200;2023-11-21T10:31:25;5.43;;;2.40;;
417;SDS011;49;48.530;9.200;2023-11-21T10:33:59;7.50;;;3.07;;
417;SDS011;49;48.530;9.200;2023-11-21T10:36:39;3.20;;;2.07;;
417;SDS011;49;48.530;9.200;2023-11-21T10:39:08;6.30;;;2.13;;
417;SDS011;49;48.530;9.200;2023-11-21T10:41:36;2.93;;;2.37;;
417;SDS011;49;48.530;9.200;2023-11-21T10:44:05;3.40;;;2.10;;
417;SDS011;49;48.530;9.200;2023-11-21T10:46:34;5.30;;;2.50;;
417;SDS011;49;48.530;9.200;2023-11-21T10:49:04;2.80;;;2.30;;
417;SDS011;49;48.530;9.200;2023-11-21T10:51:31;12.37;;;2.70;;
417;SDS011;49;48.530;9.200;2023-11-21T10:53:59;5.27;;;2.70;;
417;SDS011;49;48.530;9.200;2023-11-21T10:56:26;2.77;;;2.07;;
417;SDS011;49;48.530;9.200;2023-11-21T10:58:55;2.53;;;2.07;;
417;SDS011;49;48.530;9.200;2023-11-21T11:01:23;5.70;;;2.37;;
417;SDS011;49;48.530;9.200;2023-11-21T11:03:54;7.03;;;2.20;;
417;SDS011;49;48.530;9.200;2023-11-21T11:06:24;7.47;;;4.80;;
417;SDS011;49;48.530;9.200;2023-11-21T11:08:53;4.23;;;2.60;;
417;SDS011;49;48.530;9.200;2023-11-21T11:11:21;8.97;;;2.63;;
417;SDS011;49;48.530;9.200;2023-11-21T11:13:52;3.40;;;2.23;;
417;SDS011;49;48.530;9.200;2023-11-21T11:16:28;7.63;;;2.73;;
417;SDS011;49;48.530;9.200;2023-11-21T11:19:03;3.20;;;2.27;;
417;SDS011;49;48.530;9.200;2023-11-21T11:21:37;7.70;;;2.60;;
417;SDS011;49;48.530;9.200;2023-11-21T11:27:18;3.83;;;2.40;;
417;SDS011;49;48.530;9.200;2023-11-21T11:30:00;2.40;;;1.90;;
417;SDS011;49;48.530;9.200;2023-11-21T11:32:40;4.43;;;2.10;;
417;SDS011;49;48.530;9.200;2023-11-21T11:35:17;3.40;;;2.20;;
417;SDS011;49;48.530;9.200;2023-11-21T11:37:53;5.47;;;2.30;;
417;SDS011;49;48.530;9.200;2023-11-21T11:40:21;3.70;;;2.50;;
417;SDS011;49;48.530;9.200;2023-11-21T11:42:56;5.10;;;3.13;;
417;SDS011;49;48.530;9.200;2023-11-21T11:45:24;4.83;;;2.70;;
417;SDS011;49;48.530;9.200;2023-11-21T11:47:59;7.93;;;2.83;;
417;SDS011;49;48.530;9.200;2023-11-21T11:50:26;6.27;;;2.70;;
417;SDS011;49;48.530;9.200;2023-11-21T11:52:55;3.90;;;2.40;;
417;SDS011;49;48.530;9.200;2023-11-21T11:55:38;7.93;;;3.10;;
417;SDS011;49;48.530;9.200;2023-11-21T11:58:05;8.63;;;3.27;;
417;SDS011;49;48.530;9.200;2023-11-21T12:00:33;4.20;;;2.90;;
417;SDS011;49;48.530;9.200;2023-11-21T12:03:03;7.07;;;3.37;;
417;SDS011;49;48.530;9.200;2023-11-21T12:05:32;2.70;;;2.40;;
417;SDS011;49;48.530;9.200;2023-11-21T12:08:05;5.00;;;2.63;;
417;SDS011;49;48.530;9.200;2023-11-21T12:10:33;6.73;;;3.40;;
417;SDS011;49;48.530;9.200;2023-11-21T12:13:02;3.70;;;2.80;;
417;SDS011;49;48.530;9.200;2023-11-21T12:15:32;3.27;;;2.50;;
417;SDS011;49;48.530;9.200;2023-11-21T12:18:00;4.43;;;2.90;;
417;SDS011;49;48.530;9.200;2023-11-21T12:20:27;14.53;;;4.10;;
417;SDS011;49;48.530;9.200;2023-11-21T12:22:55;4.97;;;2.93;;
417;SDS011;49;48.530;9.200;2023-11-21T12:25:26;4.53;;;2.67;;
417;SDS011;49;48.530;9.200;2023-11-21T12:27:55;7.67;;;2.80;;
417;SDS011;49;48.530;9.200;2023-11-21T12:30:23;7.37;;;3.03;;
417;SDS011;49;48.530;9.200;2023-11-21T12:32:53;5.90;;;2.50;;
417;SDS011;49;48.530;9.200;2023-11-21T12:35:22;8.30;;;2.63;;
417;SDS011;49;48.530;9.200;2023-11-21T12:37:51;13.53;;;3.57;;
417;SDS011;49;48.530;9.200;2023-11-21T12:40:19;11.00;;;5.33;;
417;SDS011;49;48.530;9.200;2023-11-21T12:42:51;13.30;;;3.70;;
417;SDS011;49;48.530;9.200;2023-11-21T12:45:19;3.20;;;2.90;;
417;SDS011;49;48.530;9.200;2023-11-21T12:47:48;11.97;;;2.90;;
417;SDS011;49;48.530;9.200;2023-11-21T12:50:18;8.27;;;3.10;;
417;SDS011;49;48.530;9.200;2023-11-21T12:52:48;8.13;;;3.70;;
417;SDS011;49;48.530;9.200;2023-11-21T12:55:17;5.97;;;3.20;;
417;SDS011;49;48.530;9.200;2023-11-21T12:57:49;9.80;;;3.33;;
417;SDS011;49;48.530;9.200;2023-11-21T13:00:19;8.00;;;3.83;;
417;SDS011;49;48.530;9.200;2023-11-21T13:02:54;6.13;;;2.73;;
417;SDS011;49;48.530;9.200;2023-11-21T13:05:24;6.93;;;2.97;;
417;SDS011;49;48.530;9.200;2023-11-21T13:07:50;7.67;;;3.20;;
417;SDS011;49;48.530;9.200;2023-11-21T13:10:19;5.73;;;3.13;;
417;SDS011;49;48.530;9.200;2023-11-21T13:12:52;11.83;;;2.90;;
417;SDS011;49;48.530;9.200;2023-11-21T13:15:20;4.57;;;2.70;;
417;SDS011;49;48.530;9.200;2023-11-21T13:17:47;3.77;;;2.83;;
417;SDS011;49;48.530;9.200;2023-11-21T13:20:16;3.43;;;2.60;;
417;SDS011;49;48.530;9.200;2023-11-21T13:22:48;8.50;;;3.07;;
417;SDS011;49;48.530;9.200;2023-11-21T13:25:19;4.10;;;2.60;;
417;SDS011;49;48.530;9.200;2023-11-21T13:27:47;5.63;;;3.27;;
417;SDS011;49;48.530;9.200;2023-11-21T13:30:17;5.90;;;2.90;;
417;SDS011;49;48.530;9.200;2023-11-21T13:32:48;6.97;;;2.90;;
417;SDS011;49;48.530;9.200;2023-11-21T13:35:17;4.60;;;3.00;;
417;SDS011;49;48.530;9.200;2023-11-21T13:37:49;3.50;;;2.70;;
417;SDS011;49;48.530;9.200;2023-11-21T13:40:21;3.10;;;2.40;;
417;SDS011;49;48.530;9.200;2023-11-21T13:42:50;8.50;;;3.27;;
417;SDS011;49;48.530;9.200;2023-11-21T13:45:21;6.17;;;3.00;;
417;SDS011;49;48.530;9.200;2023-11-21T13:47:50;7.90;;;3.20;;
417;SDS011;49;48.530;9.200;2023-11-21T13:50:22;6.30;;;3.23;;
417;SDS011;49;48.530;9.200;2023-11-21T13:52:54;4.83;;;3.00;;
417;SDS011;49;48.530;9.200;2023-11-21T13:55:21;6.57;;;3.43;;
417;SDS011;49;48.530;9.200;2023-11-21T13:57:51;4.50;;;2.90;;
417;SDS011;49;48.530;9.200;2023-11-21T14:00:18;7.40;;;3.30;;
417;SDS011;49;48.530;9.200;2023-11-21T14:03:07;3.37;;;2.70;;
417;SDS011;49;48.530;9.200;2023-11-21T14:05:42;6.30;;;3.50;;
417;SDS011;49;48.530;9.200;2023-11-21T14:08:11;4.00;;;3.07;;
417;SDS011;49;48.530;9.200;2023-11-21T14:10:41;4.27;;;3.20;;
417;SDS011;49;48.530;9.200;2023-11-21T14:13:14;7.90;;;3.80;;
417;SDS011;49;48.530;9.200;2023-11-21T14:15:44;4.50;;;3.30;;
417;SDS011;49;48.530;9.200;2023-11-21T14:18:16;3.70;;;2.80;;
417;SDS011;49;48.530;9.200;2023-11-21T14:20:52;11.23;;;3.37;;
417;SDS011;49;48.530;9.200;2023-11-21T14:23:19;6.90;;;3.33;;
417;SDS011;49;48.530;9.200;2023-11-21T14:25:51;3.80;;;2.90;;
417;SDS011;49;48.530;9.200;2023-11-21T14:28:18;5.10;;;3.50;;
417;SDS011;49;48.530;9.200;2023-11-21T14:30:47;4.17;;;3.00;;
417;SDS011;49;48.530;9.200;2023-11-21T14:33:13;9.40;;;5.20;;
417;SDS011;49;48.530;9.200;2023-11-21T14:35:41;14.03;;;7.77;;
417;SDS011;49;48.530;9.200;2023-11-21T14:38:09;15.87;;;7.70;;
417;SDS011;49;48.530;9.200;2023-11-21T14:40:36;5.40;;;3.27;;
417;SDS011;49;48.530;9.200;2023-11-21T14:43:03;6.57;;;3.83;;
417;SDS011;49;48.530;9.200;2023-11-21T14:45:31;5.47;;;4.00;;
417;SDS011;49;48.530;9.200;2023-11-21T14:48:00;6.10;;;3.80;;
417;SDS011;49;48.530;9.200;2023-11-21T14:50:40;12.70;;;9.33;;
417;SDS011;49;48.530;9.200;2023-11-21T14:53:42;9.87;;;7.53;;
417;SDS011;49;48.530;9.200;2023-11-21T14:56:10;4.50;;;4.00;;
417;SDS011;49;48.530;9.200;2023-11-21T14:58:46;6.67;;;3.63;;
417;SDS011;49;48.530;9.200;2023-11-21T15:01:12;6.37;;;3.03;;
417;SDS011;49;48.530;9.200;2023-11-21T15:03:50;6.07;;;3.63;;
417;SDS011;49;48.530;9.200;2023-11-21T15:06:16;6.37;;;4.67;;
417;SDS011;49;48.530;9.200;2023-11-21T15:08:51;4.40;;;3.57;;
417;SDS011;49;48.530;9.200;2023-11-21T15:11:22;5.37;;;3.60;;
417;SDS011;49;48.530;9.200;2023-11-21T15:13:55;5.33;;;3.80;;
417;SDS011;49;48.530;9.200;2023-11-21T15:16:23;9.60;;;6.67;;
417;SDS011;49;48.530;9.200;2023-11-21T15:18:51;9.30;;;5.13;;
417;SDS011;49;48.530;9.200;2023-11-21T15:21:19;8.60;;;6.43;;
417;SDS011;49;48.530;9.200;2023-11-21T15:23:49;7.17;;;5.33;;
417;SDS011;49;48.530;9.200;2023-11-21T15:26:16;8.30;;;5.40;;
417;SDS011;49;48.530;9.200;2023-11-21T15:28:43;10.27;;;7.50;;
417;SDS011;49;48.530;9.200;2023-11-21T15:31:10;8.03;;;5.00;;
417;SDS011;49;48.530;9.200;2023-11-21T15:33:37;7.20;;;5.17;;
417;SDS011;49;48.530;9.200;2023-11-21T15:36:06;6.90;;;4.40;;
417;SDS011;49;48.530;9.200;2023-11-21T15:38:35;5.93;;;4.10;;
417;SDS011;49;48.530;9.200;2023-11-21T15:41:02;16.33;;;6.20;;
417;SDS011;49;48.530;9.200;2023-11-21T15:43:30;5.73;;;3.90;;
417;SDS011;49;48.530;9.200;2023-11-21T15:45:57;4.87;;;3.60;;
417;SDS011;49;48.530;9.200;2023-11-21T15:48:26;4.70;;;3.97;;
417;SDS011;49;48.530;9.200;2023-11-21T15:50:55;8.20;;;6.50;;
417;SDS011;49;48.530;9.200;2023-11-21T15:53:24;12.67;;;9.47;;
417;SDS011;49;48.530;9.200;2023-11-21T15:55:51;4.70;;;3.77;;
417;SDS011;49;48.530;9.200;2023-11-21T15:58:18;5.80;;;3.87;;
417;SDS011;49;48.530;9.200;2023-11-21T16:00:45;6.83;;;4.33;;
417;SDS011;49;48.530;9.200;2023-11-21T16:03:12;20.93;;;13.87;;
417;SDS011;49;48.530;9.200;2023-11-21T16:05:39;7.97;;;5.13;;
417;SDS011;49;48.530;9.200;2023-11-21T16:08:07;7.27;;;6.20;;
417;SDS011;49;48.530;9.200;2023-11-21T16:10:35;9.23;;;6.70;;
417;SDS011;49;48.530;9.200;2023-11-21T16:13:02;9.43;;;6.33;;